Estación Meteorológica Peña el Pijo (Robertgarden) [ 02/02/23 20:17:34 CET ]

Fecha Hora Presion(HPa) Temp (°C) Humedad % Rocio (°C) Viento ( m/s) Direccion Lluvia 1Hora(mm) Lluvia 24H(mm) LLuvia Total(mm)
2010-Jun-12 01:01:14 1009.900 11.8 64 5.2         120.17
2010-Jun-12 02:01:16 1009.200 9.3 72 4.5         120.17
2010-Jun-12 03:01:44 1008.600 8.2 77 4.4         120.17
2010-Jun-12 04:03:18 1008.100 7.8 80 4.6         120.17
2010-Jun-12 05:01:13 1008.100 7.6 81 4.6         120.17
2010-Jun-12 06:01:14 1008.100 7.9 82 5.0         120.17
2010-Jun-12 07:01:13 1007.900 7.2 82 4.3         120.17
2010-Jun-12 08:01:13 1007.800 9.8 85 7.4         120.17
2010-Jun-12 09:01:16 1007.900 15.5 64 8.7         120.17
2010-Jun-12 10:01:14 1007.800 17.9 54 8.4         120.17
2010-Jun-12 11:01:13 1007.600 20.2 45 7.8         120.17
2010-Jun-12 12:01:13 1007.400 21.8 42 8.3         120.17
2010-Jun-12 13:01:12 1007.300 18.3 48 7.0         120.17
2010-Jun-12 14:01:10 1007.300 16.5 63 9.4         120.17
2010-Jun-12 15:01:10 1007.600 13.5 78 9.7         120.17
2010-Jun-12 16:01:17 1007.100 16.8 74 12.1         120.17
2010-Jun-12 17:01:13 1006.600 18.6 67 12.3         120.17
2010-Jun-12 18:01:11 1006.900 16.4 65 9.8         120.17
2010-Jun-12 19:01:16 1006.900 15.1 62 7.9         120.17
2010-Jun-12 20:01:14 1007.600 13.9 66 7.6         120.17
2010-Jun-12 21:01:19 1007.900 12.9 72 8.0         120.17
2010-Jun-12 22:01:12 1008.200 11.8 78 8.1         120.17
2010-Jun-12 23:01:16 1008.400 11.0 83 8.2         120.17

Temperatura Máxima:21°    Temperatura Mínima:
Presión Máxima:1009.900 Hpa    Presión Mínima:1006.600 Hpa


Volver